Time;durP1;ratioP1;P1;durP2;ratioP2;P2;SDS_P1;SDS_P2;PMS_P1;PMS_P2;Temp;Humidity;BMP_temperature;BMP_pressure;BME280_temperature;BME280_humidity;BME280_pressure;Samples;Min_cycle;Max_cycle;Signal;HPM_P1;HPM_P2
2023/04/10 00:00:44;;;;;;;45.13;42.13;;;16.50;99.90;;;;;;5125357;28;20066;-69
2023/04/10 00:03:16;;;;;;;46.75;43.95;;;16.50;99.90;;;;;;5126057;28;20035;-68
2023/04/10 00:05:47;;;;;;;45.40;42.67;;;16.50;99.90;;;;;;5125323;28;20027;-68
2023/04/10 00:08:18;;;;;;;47.70;44.70;;;16.50;99.90;;;;;;5125599;28;20120;-69
2023/04/10 00:10:49;;;;;;;41.45;38.65;;;16.40;99.90;;;;;;5125415;28;20023;-68
2023/04/10 00:13:20;;;;;;;43.17;40.47;;;16.60;99.90;;;;;;5125435;28;20043;-68
2023/04/10 00:15:52;;;;;;;42.47;39.80;;;16.50;99.90;;;;;;5125408;28;20062;-68
2023/04/10 00:18:23;;;;;;;42.53;39.83;;;16.40;99.90;;;;;;5125665;28;20039;-68
2023/04/10 00:20:54;;;;;;;43.25;40.55;;;16.40;99.90;;;;;;5125588;28;20063;-68
2023/04/10 00:23:25;;;;;;;45.28;42.38;;;16.40;99.90;;;;;;5125200;28;20030;-68
2023/04/10 00:25:55;;;;;;;45.30;42.42;;;16.30;99.90;;;;;;5125221;28;20043;-68
2023/04/10 00:28:26;;;;;;;45.72;42.83;;;16.50;99.90;;;;;;5125485;28;20023;-68
2023/04/10 00:30:57;;;;;;;46.45;43.65;;;16.40;99.90;;;;;;5141461;28;20440;-69
2023/04/10 00:33:28;;;;;;;45.30;42.50;;;16.60;99.90;;;;;;5127156;28;20043;-68
2023/04/10 00:35:59;;;;;;;45.03;42.00;;;16.40;99.90;;;;;;5137550;28;20107;-68
2023/04/10 00:38:30;;;;;;;45.95;43.25;;;16.40;99.90;;;;;;5145181;28;20023;-68
2023/04/10 00:41:00;;;;;;;51.05;48.03;;;16.40;99.90;;;;;;5144400;28;20027;-68
2023/04/10 00:43:31;;;;;;;46.97;44.20;;;16.50;99.90;;;;;;5145036;28;20471;-68
2023/04/10 00:46:04;;;;;;;46.30;43.50;;;16.40;99.90;;;;;;5144993;28;20044;-68
2023/04/10 00:48:36;;;;;;;51.20;48.10;;;16.50;99.90;;;;;;5144813;28;20065;-68
2023/04/10 00:51:07;;;;;;;47.80;44.90;;;16.50;99.90;;;;;;5145070;28;20034;-68
2023/04/10 00:53:37;;;;;;;45.75;42.95;;;16.60;99.90;;;;;;5144954;28;20053;-68
2023/04/10 00:56:08;;;;;;;46.70;43.80;;;16.50;99.90;;;;;;5144971;28;20105;-68
2023/04/10 00:58:39;;;;;;;48.75;45.70;;;16.50;99.90;;;;;;5144764;28;20026;-68
2023/04/10 01:01:10;;;;;;;46.78;43.90;;;16.40;99.90;;;;;;5136932;28;20047;-68
2023/04/10 01:03:42;;;;;;;49.13;46.13;;;16.50;99.90;;;;;;5124898;28;20094;-68
2023/04/10 01:06:38;;;;;;;46.75;44.05;;;16.50;99.90;;;;;;5124801;28;20035;-68
2023/04/10 01:09:33;;;;;;;45.30;42.60;;;16.50;99.90;;;;;;5125004;28;20059;-68
2023/04/10 01:12:11;;;;;;;47.95;45.13;;;16.30;99.90;;;;;;5125014;28;20019;-68
2023/04/10 01:14:53;;;;;;;48.17;45.13;;;16.40;99.90;;;;;;5124879;28;20089;-68
2023/04/10 01:17:47;;;;;;;47.55;44.75;;;16.30;99.90;;;;;;5124839;28;20031;-68
2023/04/10 01:20:21;;;;;;;48.97;46.10;;;16.50;99.90;;;;;;5124755;28;20034;-68
2023/04/10 01:23:16;;;;;;;46.40;43.60;;;16.40;99.90;;;;;;5124625;28;20038;-68
2023/04/10 01:26:11;;;;;;;47.38;44.55;;;16.40;99.90;;;;;;5124559;28;20047;-68
2023/04/10 01:29:00;;;;;;;46.63;43.78;;;16.40;99.90;;;;;;5124706;28;20353;-68
2023/04/10 01:31:56;;;;;;;45.95;43.17;;;16.40;99.90;;;;;;5124718;28;20065;-68
2023/04/10 01:34:42;;;;;;;47.97;44.90;;;16.30;99.90;;;;;;5124756;28;20031;-69
2023/04/10 01:37:20;;;;;;;44.25;41.65;;;16.30;99.90;;;;;;5124628;28;20031;-68
2023/04/10 01:39:59;;;;;;;45.65;42.75;;;16.30;99.90;;;;;;5124813;28;20023;-68
2023/04/10 01:42:33;;;;;;;47.17;44.33;;;16.30;99.90;;;;;;5124545;28;20027;-68
2023/04/10 01:45:08;;;;;;;45.85;43.05;;;16.30;99.90;;;;;;5124344;28;20117;-68
2023/04/10 01:47:39;;;;;;;43.95;41.17;;;16.40;99.90;;;;;;5124444;28;20035;-68
2023/04/10 01:50:11;;;;;;;42.95;40.30;;;16.30;99.90;;;;;;5124561;28;20023;-68
2023/04/10 01:52:42;;;;;;;46.42;43.45;;;16.20;99.90;;;;;;5126976;28;20376;-68
2023/04/10 01:55:14;;;;;;;46.92;44.03;;;16.20;99.90;;;;;;5127903;28;20035;-68
2023/04/10 01:57:47;;;;;;;45.38;42.47;;;16.20;99.90;;;;;;5127824;28;20471;-68
2023/04/10 02:00:18;;;;;;;48.95;45.95;;;16.10;99.90;;;;;;5127686;28;20047;-68
2023/04/10 02:02:50;;;;;;;47.45;44.65;;;16.30;99.90;;;;;;5127804;28;20122;-68
2023/04/10 02:05:28;;;;;;;48.53;45.63;;;16.30;99.90;;;;;;5127727;28;20423;-68
2023/04/10 02:08:17;;;;;;;43.80;41.25;;;16.20;99.90;;;;;;5127800;28;20093;-68
2023/04/10 02:10:57;;;;;;;47.03;44.22;;;16.20;99.90;;;;;;5127754;28;20460;-68
2023/04/10 02:13:29;;;;;;;43.53;40.88;;;16.30;99.90;;;;;;5127941;28;20035;-68
2023/04/10 02:16:03;;;;;;;43.95;41.28;;;16.10;99.90;;;;;;5127552;28;20027;-68
2023/04/10 02:18:37;;;;;;;46.30;43.33;;;16.20;99.90;;;;;;5127518;28;20035;-68
2023/04/10 02:21:08;;;;;;;43.35;40.65;;;16.20;99.90;;;;;;5127452;28;20039;-68
2023/04/10 02:23:39;;;;;;;42.50;39.80;;;16.20;99.90;;;;;;5127434;28;20039;-68
2023/04/10 02:26:10;;;;;;;43.78;40.97;;;16.10;99.90;;;;;;5127207;28;20122;-68
2023/04/10 02:28:41;;;;;;;45.35;42.67;;;16.00;99.90;;;;;;5127185;28;20154;-68
2023/04/10 02:31:12;;;;;;;42.35;39.75;;;16.10;99.90;;;;;;5127210;28;20031;-68
2023/04/10 02:33:42;;;;;;;43.83;41.13;;;16.10;99.90;;;;;;5140344;28;20039;-68
2023/04/10 02:36:13;;;;;;;42.85;40.17;;;16.10;99.90;;;;;;5147286;28;20089;-69
2023/04/10 02:38:44;;;;;;;43.83;41.20;;;16.10;99.90;;;;;;5147214;28;20546;-68
2023/04/10 02:41:15;;;;;;;44.28;41.60;;;16.10;99.90;;;;;;5147441;28;20023;-68
2023/04/10 02:43:46;;;;;;;44.35;41.63;;;16.10;99.90;;;;;;5146864;28;20023;-68
2023/04/10 02:46:17;;;;;;;46.78;43.80;;;16.10;99.90;;;;;;5146883;28;20038;-68
2023/04/10 02:48:47;;;;;;;46.80;44.00;;;16.10;99.90;;;;;;5147343;28;20502;-68
2023/04/10 02:51:18;;;;;;;44.35;41.60;;;16.00;99.90;;;;;;5147215;28;20042;-68
2023/04/10 02:53:51;;;;;;;47.03;44.13;;;16.00;99.90;;;;;;5146936;28;20493;-68
2023/04/10 02:56:22;;;;;;;46.38;43.67;;;16.00;99.90;;;;;;5146816;28;20019;-68
2023/04/10 02:58:53;;;;;;;48.38;45.53;;;16.00;99.90;;;;;;5146845;28;20109;-68
2023/04/10 03:01:24;;;;;;;45.35;42.55;;;16.10;99.90;;;;;;5146551;28;20518;-68
2023/04/10 03:03:55;;;;;;;47.08;44.08;;;16.00;99.90;;;;;;5146008;28;20471;-69
2023/04/10 03:06:26;;;;;;;43.85;41.25;;;16.00;99.90;;;;;;5146562;28;20208;-68
2023/04/10 03:08:57;;;;;;;47.25;44.47;;;16.10;99.90;;;;;;5146778;28;20463;-68
2023/04/10 03:11:28;;;;;;;47.75;44.75;;;16.10;99.90;;;;;;5146624;28;20035;-68
2023/04/10 03:13:58;;;;;;;47.22;44.53;;;16.00;99.90;;;;;;5146535;28;20166;-68
2023/04/10 03:16:29;;;;;;;49.17;46.28;;;15.90;99.90;;;;;;5146512;28;20109;-68
2023/04/10 03:19:00;;;;;;;47.28;44.40;;;15.80;99.90;;;;;;5146465;28;20494;-68
2023/04/10 03:21:31;;;;;;;45.95;43.10;;;15.90;99.90;;;;;;5144684;28;20113;-68
2023/04/10 03:24:02;;;;;;;46.67;43.97;;;15.80;99.90;;;;;;5142142;28;20182;-68
2023/04/10 03:26:33;;;;;;;42.65;40.05;;;16.00;99.90;;;;;;5132962;28;20038;-68
2023/04/10 03:29:04;;;;;;;45.85;42.95;;;15.90;99.90;;;;;;5146089;28;20029;-68
2023/04/10 03:31:35;;;;;;;44.53;41.72;;;15.90;99.90;;;;;;5146243;28;20034;-68
2023/04/10 03:34:05;;;;;;;46.10;43.03;;;15.80;99.90;;;;;;5136379;28;20499;-68
2023/04/10 03:36:36;;;;;;;44.78;42.00;;;15.80;99.90;;;;;;5126036;28;20031;-68
2023/04/10 03:39:07;;;;;;;46.65;43.97;;;15.90;99.90;;;;;;5125982;28;20087;-68
2023/04/10 03:41:38;;;;;;;42.72;40.17;;;16.80;99.90;;;;;;5125872;28;20102;-67
2023/04/10 03:44:09;;;;;;;47.50;44.60;;;16.60;99.90;;;;;;5130247;28;20066;-67
2023/04/10 03:46:40;;;;;;;46.08;43.25;;;15.90;99.90;;;;;;5125103;28;20502;-68
2023/04/10 03:49:10;;;;;;;45.95;43.15;;;15.70;99.90;;;;;;5125672;28;20154;-68
2023/04/10 03:51:41;;;;;;;44.35;41.70;;;15.80;99.90;;;;;;5125776;28;20023;-68
2023/04/10 03:54:12;;;;;;;46.13;43.25;;;15.60;99.90;;;;;;5125924;28;20024;-68
2023/04/10 03:56:43;;;;;;;46.25;43.50;;;15.70;99.90;;;;;;5125770;28;20023;-68
2023/04/10 03:59:14;;;;;;;45.40;42.60;;;15.90;99.90;;;;;;5125393;28;20118;-68
2023/04/10 04:01:45;;;;;;;47.80;44.80;;;15.70;99.90;;;;;;5125684;28;20035;-67
2023/04/10 04:04:15;;;;;;;49.55;46.30;;;15.70;99.90;;;;;;5125534;28;20373;-68
2023/04/10 04:06:47;;;;;;;50.10;46.90;;;15.80;99.90;;;;;;5126077;28;20036;-68
2023/04/10 04:09:18;;;;;;;47.65;44.53;;;15.50;99.90;;;;;;5125731;28;20373;-68
2023/04/10 04:11:49;;;;;;;44.72;42.03;;;15.60;99.90;;;;;;5125486;28;20086;-68
2023/04/10 04:14:20;;;;;;;46.30;43.40;;;15.60;99.90;;;;;;5125409;28;20032;-68
2023/04/10 04:16:51;;;;;;;51.10;47.92;;;15.50;99.90;;;;;;5125349;28;20015;-68
2023/04/10 04:19:22;;;;;;;50.47;47.47;;;15.70;99.90;;;;;;5125323;28;20035;-68
2023/04/10 04:21:53;;;;;;;50.58;47.42;;;15.60;99.90;;;;;;5125450;28;20023;-68
2023/04/10 04:24:23;;;;;;;50.38;47.38;;;15.80;99.90;;;;;;5125285;28;20035;-68
2023/04/10 04:26:55;;;;;;;47.85;44.90;;;15.60;99.90;;;;;;5125162;28;20134;-68
2023/04/10 04:29:26;;;;;;;51.55;48.25;;;15.60;99.90;;;;;;5125014;28;20035;-68
2023/04/10 04:31:57;;;;;;;49.78;46.70;;;15.60;99.90;;;;;;5125227;28;20053;-68
2023/04/10 04:34:28;;;;;;;48.08;44.70;;;15.60;99.90;;;;;;5125207;28;20027;-68
2023/04/10 04:36:59;;;;;;;49.33;46.33;;;15.60;99.90;;;;;;5125256;28;20102;-68
2023/04/10 04:39:30;;;;;;;48.05;44.67;;;15.60;99.90;;;;;;5125119;28;20027;-68
2023/04/10 04:42:00;;;;;;;47.45;44.67;;;15.50;99.90;;;;;;5125194;28;20035;-68
2023/04/10 04:44:31;;;;;;;43.75;40.95;;;15.60;99.90;;;;;;5125117;28;20403;-68
2023/04/10 04:47:02;;;;;;;49.55;46.55;;;15.60;99.90;;;;;;5125155;28;20043;-68
2023/04/10 04:49:33;;;;;;;52.10;48.67;;;15.50;99.90;;;;;;5125039;28;20039;-68
2023/04/10 04:52:04;;;;;;;51.08;48.08;;;15.50;99.90;;;;;;5125016;28;20387;-68
2023/04/10 04:54:35;;;;;;;49.63;46.53;;;15.50;99.90;;;;;;5124953;28;20468;-68
2023/04/10 04:57:06;;;;;;;47.65;44.78;;;15.50;99.90;;;;;;5125013;28;20034;-68
2023/04/10 04:59:37;;;;;;;49.13;46.03;;;15.50;99.90;;;;;;5124473;28;20047;-68
2023/04/10 05:02:08;;;;;;;52.72;49.45;;;15.50;99.90;;;;;;5124867;28;20035;-68
2023/04/10 05:04:39;;;;;;;53.78;50.22;;;15.40;99.90;;;;;;5124729;28;20082;-68
2023/04/10 05:07:10;;;;;;;53.55;50.35;;;15.40;99.90;;;;;;5124872;28;20039;-68
2023/04/10 05:09:41;;;;;;;52.50;49.20;;;15.60;99.90;;;;;;5125051;28;20046;-68
2023/04/10 05:12:12;;;;;;;53.00;49.72;;;15.60;99.90;;;;;;5124895;28;20031;-68
2023/04/10 05:14:43;;;;;;;51.40;48.22;;;15.40;99.90;;;;;;5124795;28;20027;-68
2023/04/10 05:17:15;;;;;;;53.58;50.38;;;15.30;99.90;;;;;;5125106;28;20027;-68
2023/04/10 05:19:46;;;;;;;52.08;48.90;;;15.40;99.90;;;;;;5125012;28;20032;-68
2023/04/10 05:22:17;;;;;;;50.05;46.95;;;15.40;99.90;;;;;;5124865;28;20383;-68
2023/04/10 05:24:48;;;;;;;53.80;50.42;;;15.50;99.90;;;;;;5124827;28;20031;-68
2023/04/10 05:27:19;;;;;;;50.67;47.67;;;15.30;99.90;;;;;;5126683;28;20039;-68
2023/04/10 05:29:49;;;;;;;53.65;50.40;;;15.30;99.90;;;;;;5128684;28;20051;-68
2023/04/10 05:32:20;;;;;;;50.47;47.35;;;15.40;99.90;;;;;;5128554;28;20073;-68
2023/04/10 05:34:51;;;;;;;53.75;50.55;;;15.30;99.90;;;;;;5159466;28;20420;-68
2023/04/10 05:37:22;;;;;;;56.28;52.90;;;15.30;99.90;;;;;;5128469;28;20032;-68
2023/04/10 05:39:53;;;;;;;52.40;49.22;;;15.20;99.90;;;;;;5128466;28;20042;-68
2023/04/10 05:42:23;;;;;;;57.35;53.90;;;15.30;99.90;;;;;;5128248;28;20031;-68
2023/04/10 05:44:54;;;;;;;59.92;56.05;;;15.20;99.90;;;;;;5128362;28;20873;-68
2023/04/10 05:47:25;;;;;;;57.85;54.28;;;15.30;99.90;;;;;;5128092;28;20060;-68
2023/04/10 05:49:56;;;;;;;58.83;55.28;;;15.20;99.90;;;;;;5128182;28;20081;-68
2023/04/10 05:52:27;;;;;;;59.33;55.83;;;15.30;99.90;;;;;;5128057;28;20035;-68
2023/04/10 05:54:58;;;;;;;63.03;59.25;;;15.30;99.90;;;;;;5128113;28;20019;-67
2023/04/10 05:57:29;;;;;;;58.05;54.55;;;15.30;99.90;;;;;;5127844;28;20035;-68
2023/04/10 06:00:00;;;;;;;60.88;57.17;;;15.30;99.90;;;;;;5127706;28;20109;-68
2023/04/10 06:02:31;;;;;;;56.38;52.88;;;15.20;99.90;;;;;;5127751;28;20031;-68
2023/04/10 06:05:02;;;;;;;55.83;52.45;;;15.40;99.90;;;;;;5127696;28;20051;-68
2023/04/10 06:07:33;;;;;;;58.85;55.30;;;15.20;99.90;;;;;;5127837;28;20114;-68
2023/04/10 06:10:05;;;;;;;58.22;54.85;;;15.50;99.90;;;;;;5127731;28;20015;-67
2023/04/10 06:12:36;;;;;;;63.67;59.92;;;15.20;99.90;;;;;;5127677;28;20049;-68
2023/04/10 06:15:07;;;;;;;56.88;53.58;;;15.30;99.90;;;;;;5127594;28;20042;-67
2023/04/10 06:17:42;;;;;;;52.58;49.55;;;16.60;99.90;;;;;;5127682;28;20035;-68
2023/04/10 06:20:13;;;;;;;47.42;44.58;;;16.60;99.90;;;;;;5127464;28;20166;-68
2023/04/10 06:22:44;;;;;;;46.95;44.15;;;16.50;99.90;;;;;;5127448;28;20502;-68
2023/04/10 06:25:15;;;;;;;47.88;45.00;;;16.40;99.90;;;;;;5127497;28;20095;-68
2023/04/10 06:27:46;;;;;;;46.97;43.97;;;16.40;99.90;;;;;;5127321;28;20118;-68
2023/04/10 06:30:17;;;;;;;47.00;44.00;;;16.30;99.90;;;;;;5127521;28;20531;-68
2023/04/10 06:32:48;;;;;;;44.88;42.17;;;16.30;99.90;;;;;;5127579;28;20492;-68
2023/04/10 06:35:20;;;;;;;45.95;43.08;;;16.30;99.90;;;;;;5127506;28;20751;-68
2023/04/10 06:37:50;;;;;;;47.42;44.42;;;16.30;99.90;;;;;;5126326;28;20038;-68
2023/04/10 06:40:21;;;;;;;45.25;41.95;;;16.20;99.90;;;;;;5158239;28;20027;-68
2023/04/10 06:42:52;;;;;;;46.10;43.08;;;16.20;99.90;;;;;;5127213;28;20031;-68
2023/04/10 06:45:23;;;;;;;48.45;45.30;;;16.20;99.90;;;;;;5126901;28;20425;-68
2023/04/10 06:47:54;;;;;;;50.40;47.22;;;16.20;99.90;;;;;;5127018;28;20038;-68
2023/04/10 06:50:25;;;;;;;50.47;47.28;;;16.10;99.90;;;;;;5126994;28;20028;-66
2023/04/10 06:52:58;;;;;;;47.72;44.80;;;16.10;99.90;;;;;;5127031;28;20019;-68
2023/04/10 06:55:30;;;;;;;47.53;44.35;;;16.10;99.90;;;;;;5126952;28;20086;-68
2023/04/10 06:58:00;;;;;;;47.78;44.78;;;16.10;99.90;;;;;;5126774;28;20040;-68
2023/04/10 07:00:31;;;;;;;52.72;49.53;;;16.00;99.90;;;;;;5157559;28;20061;-68
2023/04/10 07:03:02;;;;;;;52.55;49.05;;;16.00;99.90;;;;;;5126731;28;20464;-67
2023/04/10 07:05:33;;;;;;;53.22;49.35;;;15.80;99.90;;;;;;5126574;28;20036;-68
2023/04/10 07:08:04;;;;;;;52.22;48.50;;;15.80;99.90;;;;;;5126553;28;20031;-68
2023/04/10 07:10:35;;;;;;;51.53;47.85;;;15.90;99.90;;;;;;5126519;28;20460;-66
2023/04/10 07:13:06;;;;;;;48.13;45.25;;;15.80;99.90;;;;;;5126465;28;20039;-66
2023/04/10 07:15:36;;;;;;;49.83;46.17;;;15.70;99.90;;;;;;5126585;28;20034;-69
2023/04/10 07:18:07;;;;;;;49.80;46.17;;;15.70;99.90;;;;;;5126350;28;20507;-69
2023/04/10 07:20:38;;;;;;;50.17;46.55;;;15.70;99.90;;;;;;5126377;28;20494;-71
2023/04/10 07:23:09;;;;;;;55.35;51.33;;;15.90;99.90;;;;;;5126384;28;20027;-69
2023/04/10 07:25:41;;;;;;;53.85;49.67;;;15.80;99.90;;;;;;5125181;28;20166;-72
2023/04/10 07:28:12;;;;;;;49.33;45.25;;;15.80;99.90;;;;;;5126074;28;20118;-69
2023/04/10 07:30:43;;;;;;;48.72;44.97;;;15.80;99.90;;;;;;5126142;28;20170;-68
2023/04/10 07:33:13;;;;;;;49.78;45.13;;;15.90;99.90;;;;;;5126207;28;20063;-69
2023/04/10 07:35:44;;;;;;;50.00;46.28;;;15.90;99.90;;;;;;5126225;28;20023;-66
2023/04/10 07:38:16;;;;;;;51.65;47.30;;;15.90;99.90;;;;;;5126130;28;20027;-69
2023/04/10 07:40:48;;;;;;;53.47;48.45;;;15.90;99.90;;;;;;5126158;28;20020;-69
2023/04/10 07:43:19;;;;;;;49.97;45.42;;;16.00;99.90;;;;;;5126208;28;20047;-69
2023/04/10 07:45:50;;;;;;;50.25;46.70;;;15.90;99.90;;;;;;5126059;28;20039;-69
2023/04/10 07:48:21;;;;;;;45.88;42.88;;;15.90;99.90;;;;;;5126008;28;20036;-69
2023/04/10 07:50:52;;;;;;;50.35;46.47;;;16.00;99.90;;;;;;5125503;28;20027;-69
2023/04/10 07:53:23;;;;;;;43.72;40.72;;;15.90;99.90;;;;;;5125797;28;20122;-67
2023/04/10 07:55:54;;;;;;;43.83;40.22;;;16.00;99.90;;;;;;5125942;28;20041;-68
2023/04/10 07:58:24;;;;;;;47.97;43.70;;;16.10;99.90;;;;;;5125589;28;20547;-68
2023/04/10 08:00:55;;;;;;;48.78;45.47;;;16.10;99.90;;;;;;5132153;28;20043;-66
2023/04/10 08:03:27;;;;;;;50.50;47.13;;;16.00;99.90;;;;;;5125726;28;20476;-67
2023/04/10 08:05:58;;;;;;;49.33;46.03;;;16.10;99.90;;;;;;5125539;28;20058;-66
2023/04/10 08:08:28;;;;;;;47.90;44.67;;;16.10;99.90;;;;;;5130505;28;20034;-68
2023/04/10 08:11:00;;;;;;;43.05;40.00;;;16.00;99.90;;;;;;5145434;28;20031;-70
2023/04/10 08:13:31;;;;;;;48.38;44.30;;;16.10;99.90;;;;;;5144339;28;20025;-68
2023/04/10 08:16:02;;;;;;;54.45;49.90;;;16.00;99.90;;;;;;5145361;28;20066;-68
2023/04/10 08:18:32;;;;;;;53.70;49.38;;;16.20;99.90;;;;;;5145386;28;20706;-68
2023/04/10 08:21:04;;;;;;;56.72;52.10;;;16.40;99.90;;;;;;5144065;28;20029;-68
2023/04/10 08:23:35;;;;;;;56.92;52.55;;;16.70;99.90;;;;;;5145263;28;20042;-68
2023/04/10 08:26:06;;;;;;;50.05;46.22;;;16.70;99.90;;;;;;5145079;28;20035;-68
2023/04/10 08:28:37;;;;;;;48.10;44.42;;;17.00;99.90;;;;;;5145086;28;20513;-68
2023/04/10 08:31:08;;;;;;;50.53;47.00;;;17.20;99.90;;;;;;5145047;28;20030;-67
2023/04/10 08:33:39;;;;;;;50.40;46.63;;;17.40;99.90;;;;;;5145300;28;20038;-68
2023/04/10 08:36:11;;;;;;;46.47;43.22;;;18.00;99.90;;;;;;5145126;28;20414;-68
2023/04/10 08:38:43;;;;;;;47.70;44.30;;;18.00;99.90;;;;;;5145207;28;20078;-68
2023/04/10 08:41:16;;;;;;;51.20;47.33;;;18.20;99.90;;;;;;5144834;28;20045;-69
2023/04/10 08:43:48;;;;;;;51.03;47.03;;;18.50;99.90;;;;;;5145013;28;20023;-69
2023/04/10 08:46:23;;;;;;;53.38;49.55;;;18.60;99.90;;;;;;5144835;28;20035;-68
2023/04/10 08:48:59;;;;;;;50.58;46.70;;;18.60;99.90;;;;;;5144896;28;20459;-69
2023/04/10 08:51:47;;;;;;;49.42;45.83;;;18.50;99.90;;;;;;5144921;28;20355;-69
2023/04/10 08:54:24;;;;;;;46.67;43.10;;;18.60;99.90;;;;;;5145054;28;20037;-67
2023/04/10 08:56:57;;;;;;;46.15;42.90;;;18.60;99.90;;;;;;5144978;28;20027;-69
2023/04/10 08:59:29;;;;;;;44.50;41.08;;;18.70;99.90;;;;;;5145082;28;20049;-66
2023/04/10 09:02:00;;;;;;;43.25;40.05;;;18.60;99.90;;;;;;5146643;28;20027;-67
2023/04/10 09:04:32;;;;;;;48.17;44.67;;;18.50;99.90;;;;;;5148848;28;20081;-71
2023/04/10 09:07:03;;;;;;;45.10;41.85;;;18.60;99.90;;;;;;5148895;28;20039;-69
2023/04/10 09:09:33;;;;;;;46.30;43.00;;;18.60;99.90;;;;;;5148885;28;20394;-66
2023/04/10 09:12:05;;;;;;;44.83;41.40;;;18.50;99.90;;;;;;5148789;28;20042;-70
2023/04/10 09:14:36;;;;;;;45.42;42.30;;;18.60;99.90;;;;;;5148930;28;20022;-70
2023/04/10 09:17:23;;;;;;;45.83;42.78;;;18.60;99.90;;;;;;5148831;28;20403;-70
2023/04/10 09:19:55;;;;;;;45.30;42.30;;;18.70;99.90;;;;;;5148802;28;20456;-70
2023/04/10 09:22:31;;;;;;;46.55;43.40;;;18.80;99.90;;;;;;5148711;28;20023;-70
2023/04/10 09:25:03;;;;;;;51.28;47.75;;;18.70;99.90;;;;;;5148759;28;20027;-70
2023/04/10 09:27:36;;;;;;;46.28;43.28;;;18.50;99.90;;;;;;5148354;28;20077;-69
2023/04/10 09:30:07;;;;;;;48.53;45.10;;;18.80;99.90;;;;;;5148458;28;20102;-69
2023/04/10 09:32:43;;;;;;;46.20;43.17;;;18.70;99.90;;;;;;5148569;28;20098;-70
2023/04/10 09:35:15;;;;;;;47.15;43.78;;;18.70;99.90;;;;;;5148434;28;20037;-66
2023/04/10 09:37:46;;;;;;;47.88;44.78;;;18.60;99.90;;;;;;5148374;28;20116;-70
2023/04/10 09:40:23;;;;;;;47.97;44.80;;;18.50;99.90;;;;;;5148269;28;20047;-70
2023/04/10 09:42:56;;;;;;;49.08;45.67;;;18.60;99.90;;;;;;5148346;28;20489;-70
2023/04/10 09:45:49;;;;;;;49.88;46.67;;;18.50;99.90;;;;;;5148076;28;20058;-70
2023/04/10 09:48:21;;;;;;;47.45;44.33;;;18.40;99.90;;;;;;5148084;28;20383;-69
2023/04/10 09:50:52;;;;;;;46.75;43.65;;;18.40;99.90;;;;;;5148257;28;20058;-67
2023/04/10 09:53:23;;;;;;;50.22;46.70;;;18.40;99.90;;;;;;5148026;28;20093;-69
2023/04/10 09:55:55;;;;;;;48.15;44.90;;;18.30;99.90;;;;;;5125873;28;20047;-68
2023/04/10 09:58:26;;;;;;;57.83;53.45;;;18.30;99.90;;;;;;5108267;28;20027;-68
2023/04/10 10:00:57;;;;;;;50.67;47.13;;;18.30;99.90;;;;;;5122405;29;20039;-69
2023/04/10 10:03:28;;;;;;;51.28;47.85;;;18.20;99.90;;;;;;5128130;28;20035;-69
2023/04/10 10:05:59;;;;;;;51.47;48.05;;;18.20;99.90;;;;;;5127895;28;20035;-68
2023/04/10 10:08:32;;;;;;;51.78;48.38;;;18.30;99.90;;;;;;5127850;28;20045;-69
2023/04/10 10:11:08;;;;;;;50.92;47.53;;;18.30;99.90;;;;;;5127775;28;20042;-67
2023/04/10 10:13:55;;;;;;;51.85;48.50;;;18.60;99.90;;;;;;5127554;28;20035;-68
2023/04/10 10:16:48;;;;;;;53.83;50.38;;;18.50;99.90;;;;;;5127661;28;20027;-68
2023/04/10 10:19:30;;;;;;;50.65;47.10;;;18.50;99.90;;;;;;5127662;28;20027;-69
2023/04/10 10:22:02;;;;;;;49.50;46.30;;;18.50;99.90;;;;;;5127659;28;20482;-68
2023/04/10 10:24:37;;;;;;;47.03;44.10;;;18.60;99.90;;;;;;5127471;28;20067;-71
2023/04/10 10:27:09;;;;;;;50.00;46.60;;;18.50;99.90;;;;;;5127282;28;20511;-68
2023/04/10 10:29:43;;;;;;;51.38;48.08;;;18.50;99.90;;;;;;5127475;28;20353;-69
2023/04/10 10:32:16;;;;;;;48.25;45.22;;;18.70;99.90;;;;;;5127323;28;20035;-70
2023/04/10 10:34:49;;;;;;;48.95;45.85;;;18.70;99.90;;;;;;5127610;28;20566;-66
2023/04/10 10:37:20;;;;;;;47.97;44.53;;;18.70;99.90;;;;;;5127287;28;20027;-66
2023/04/10 10:40:03;;;;;;;48.72;45.80;;;18.70;99.90;;;;;;5141257;28;20031;-69
2023/04/10 10:43:01;;;;;;;44.55;41.75;;;18.80;99.90;;;;;;5127270;28;20363;-69
2023/04/10 10:46:01;;;;;;;37.95;35.28;;;18.70;99.90;;;;;;5127144;28;20019;-71
2023/04/10 10:48:33;;;;;;;41.10;38.58;;;19.40;99.90;;;;;;5127130;28;20098;-66
2023/04/10 10:51:04;;;;;;;46.42;43.63;;;19.80;99.90;;;;;;5127074;28;20102;-71
2023/04/10 10:53:40;;;;;;;40.53;37.83;;;19.90;99.90;;;;;;5126963;28;20488;-71
2023/04/10 10:56:21;;;;;;;46.17;43.05;;;19.90;99.90;;;;;;5126800;28;20499;-69
2023/04/10 10:58:54;;;;;;;48.28;44.72;;;20.00;99.90;;;;;;5126875;28;20117;-67
2023/04/10 11:01:26;;;;;;;42.88;39.78;;;20.10;99.90;;;;;;5126615;28;20043;-69
2023/04/10 11:03:58;;;;;;;43.13;40.13;;;20.40;99.90;;;;;;5126707;28;20046;-70
2023/04/10 11:06:58;;;;;;;44.08;41.13;;;20.40;99.90;;;;;;5126687;28;20042;-69
2023/04/10 11:09:49;;;;;;;;;;;20.60;99.90;;;;;;5121687;29;20045;-69
2023/04/10 11:12:24;;;;;;;48.05;44.47;;;20.70;99.90;;;;;;5126202;28;19906;-68
2023/04/10 11:15:00;;;;;;;45.88;42.97;;;20.80;99.90;;;;;;5126622;28;20074;-71
2023/04/10 11:17:52;;;;;;;42.60;39.40;;;20.60;99.90;;;;;;5126431;28;20038;-71
2023/04/10 11:20:27;;;;;;;46.67;43.60;;;20.60;99.90;;;;;;5126447;28;20035;-71
2023/04/10 11:23:11;;;;;;;44.38;41.38;;;20.60;99.90;;;;;;5126607;28;20023;-70
2023/04/10 11:25:50;;;;;;;48.78;44.95;;;20.80;99.90;;;;;;5125913;28;20042;-70
2023/04/10 11:28:36;;;;;;;45.25;42.15;;;20.90;99.90;;;;;;5126234;28;20042;-70
2023/04/10 11:31:23;;;;;;;48.25;44.92;;;20.90;99.90;;;;;;5126239;28;20019;-71
2023/04/10 11:33:57;;;;;;;46.08;43.05;;;21.00;99.90;;;;;;5126181;28;20101;-70
2023/04/10 11:36:28;;;;;;;43.63;40.90;;;21.10;99.90;;;;;;5126029;28;20039;-70
2023/04/10 11:39:19;;;;;;;45.92;42.95;;;21.10;99.90;;;;;;5126016;28;20019;-69
2023/04/10 11:41:55;;;;;;;45.80;42.80;;;21.10;99.90;;;;;;5126168;28;20160;-71
2023/04/10 11:44:30;;;;;;;43.72;40.70;;;21.20;99.90;;;;;;5126051;28;20111;-66
2023/04/10 11:47:03;;;;;;;42.75;39.97;;;21.40;99.90;;;;;;5125754;28;20043;-66
2023/04/10 11:49:35;;;;;;;46.55;43.40;;;21.40;99.90;;;;;;5125719;28;20027;-66
2023/04/10 11:52:08;;;;;;;41.10;38.45;;;21.50;99.90;;;;;;5125874;28;20481;-67
2023/04/10 11:54:49;;;;;;;44.10;41.08;;;21.50;99.90;;;;;;5125777;28;20027;-66
2023/04/10 11:57:21;;;;;;;43.83;41.15;;;21.40;99.90;;;;;;5125828;28;20498;-66
2023/04/10 11:59:58;;;;;;;39.30;36.92;;;21.60;99.90;;;;;;5125509;28;20519;-66
2023/04/10 12:02:29;;;;;;;41.35;38.38;;;21.60;99.90;;;;;;5125577;28;20055;-66
2023/04/10 12:05:01;;;;;;;37.53;35.13;;;21.70;99.90;;;;;;5125553;28;20070;-66
2023/04/10 12:07:35;;;;;;;47.53;44.72;;;21.80;99.90;;;;;;5125534;28;20035;-69
2023/04/10 12:10:06;;;;;;;38.92;36.55;;;21.70;99.90;;;;;;5125644;28;20471;-71
2023/04/10 12:12:40;;;;;;;39.58;36.97;;;21.70;99.90;;;;;;5125375;28;20023;-70
2023/04/10 12:15:30;;;;;;;38.90;36.17;;;21.40;99.90;;;;;;5125467;28;20019;-66
2023/04/10 12:18:03;;;;;;;46.72;43.65;;;21.30;99.90;;;;;;5125562;28;20034;-65
2023/04/10 12:20:36;;;;;;;44.17;41.50;;;21.20;99.90;;;;;;5125356;28;20033;-66
2023/04/10 12:23:12;;;;;;;41.47;38.95;;;21.20;99.90;;;;;;5125547;28;20413;-66
2023/04/10 12:25:43;;;;;;;40.33;37.83;;;21.20;99.90;;;;;;5125427;28;20035;-66
2023/04/10 12:28:21;;;;;;;44.35;41.60;;;21.10;99.90;;;;;;5125138;28;20039;-69
2023/04/10 12:30:52;;;;;;;46.15;43.38;;;21.20;99.90;;;;;;5125283;28;20038;-66
2023/04/10 12:33:24;;;;;;;42.15;39.58;;;21.10;99.90;;;;;;5125248;28;20188;-71
2023/04/10 12:35:55;;;;;;;47.28;44.10;;;21.00;99.90;;;;;;5124421;28;20045;-70
2023/04/10 12:38:42;;;;;;;41.03;38.20;;;21.00;99.90;;;;;;5125285;28;20114;-71
2023/04/10 12:41:22;;;;;;;45.55;42.75;;;21.00;99.90;;;;;;5125006;28;20075;-72
2023/04/10 12:44:05;;;;;;;47.78;44.90;;;21.00;99.90;;;;;;5125303;28;20037;-72
2023/04/10 12:46:37;;;;;;;45.63;42.40;;;21.00;99.90;;;;;;5125035;28;20043;-71
2023/04/10 12:49:15;;;;;;;42.75;39.90;;;21.00;99.90;;;;;;5125143;28;20117;-74
2023/04/10 12:51:51;;;;;;;40.92;38.33;;;21.10;99.90;;;;;;5125077;28;20032;-72
2023/04/10 12:54:33;;;;;;;42.97;40.38;;;21.00;99.90;;;;;;5125019;28;20381;-72
2023/04/10 12:57:05;;;;;;;43.88;40.95;;;21.10;99.90;;;;;;5124956;28;20521;-66
2023/04/10 12:59:36;;;;;;;41.25;38.72;;;21.30;99.90;;;;;;5124751;28;20044;-71